sensor_id;sensor_type;location;lat;lon;timestamp;P1;durP1;ratioP1;P2;durP2;ratioP2
30472;SDS011;17263;48.160;11.452;2022-11-15T00:00:08;10.63;;;7.47;;
30472;SDS011;17263;48.160;11.452;2022-11-15T00:02:35;9.77;;;7.70;;
30472;SDS011;17263;48.160;11.452;2022-11-15T00:05:01;12.37;;;8.07;;
30472;SDS011;17263;48.160;11.452;2022-11-15T00:07:27;9.33;;;7.90;;
30472;SDS011;17263;48.160;11.452;2022-11-15T00:09:53;9.77;;;8.07;;
30472;SDS011;17263;48.160;11.452;2022-11-15T00:12:19;11.37;;;8.30;;
30472;SDS011;17263;48.160;11.452;2022-11-15T00:14:45;8.63;;;7.03;;
30472;SDS011;17263;48.160;11.452;2022-11-15T00:17:11;8.50;;;7.17;;
30472;SDS011;17263;48.160;11.452;2022-11-15T00:19:37;7.87;;;7.03;;
30472;SDS011;17263;48.160;11.452;2022-11-15T00:22:03;8.80;;;6.80;;
30472;SDS011;17263;48.160;11.452;2022-11-15T00:24:29;7.83;;;6.83;;
30472;SDS011;17263;48.160;11.452;2022-11-15T00:26:55;9.43;;;7.53;;
30472;SDS011;17263;48.160;11.452;2022-11-15T00:29:21;9.30;;;6.93;;
30472;SDS011;17263;48.160;11.452;2022-11-15T00:31:48;7.97;;;7.17;;
30472;SDS011;17263;48.160;11.452;2022-11-15T00:34:14;10.30;;;6.60;;
30472;SDS011;17263;48.160;11.452;2022-11-15T00:36:40;9.43;;;7.00;;
30472;SDS011;17263;48.160;11.452;2022-11-15T00:39:06;8.83;;;7.13;;
30472;SDS011;17263;48.160;11.452;2022-11-15T00:41:32;7.20;;;6.10;;
30472;SDS011;17263;48.160;11.452;2022-11-15T00:43:58;8.00;;;6.50;;
30472;SDS011;17263;48.160;11.452;2022-11-15T00:46:24;7.50;;;6.07;;
30472;SDS011;17263;48.160;11.452;2022-11-15T00:48:50;8.73;;;6.40;;
30472;SDS011;17263;48.160;11.452;2022-11-15T00:51:16;7.47;;;6.50;;
30472;SDS011;17263;48.160;11.452;2022-11-15T00:53:42;7.13;;;6.13;;
30472;SDS011;17263;48.160;11.452;2022-11-15T00:56:08;7.30;;;6.17;;
30472;SDS011;17263;48.160;11.452;2022-11-15T00:58:34;6.27;;;5.67;;
30472;SDS011;17263;48.160;11.452;2022-11-15T01:01:10;7.33;;;5.83;;
30472;SDS011;17263;48.160;11.452;2022-11-15T01:03:38;7.60;;;5.90;;
30472;SDS011;17263;48.160;11.452;2022-11-15T01:06:05;6.00;;;5.40;;
30472;SDS011;17263;48.160;11.452;2022-11-15T01:08:33;6.43;;;5.63;;
30472;SDS011;17263;48.160;11.452;2022-11-15T01:11:09;6.47;;;5.20;;
30472;SDS011;17263;48.160;11.452;2022-11-15T01:13:38;7.73;;;5.33;;
30472;SDS011;17263;48.160;11.452;2022-11-15T01:16:12;6.30;;;5.37;;
30472;SDS011;17263;48.160;11.452;2022-11-15T01:18:39;6.80;;;5.77;;
30472;SDS011;17263;48.160;11.452;2022-11-15T01:21:09;6.87;;;5.20;;
30472;SDS011;17263;48.160;11.452;2022-11-15T01:23:37;6.10;;;5.50;;
30472;SDS011;17263;48.160;11.452;2022-11-15T01:26:05;6.00;;;5.10;;
30472;SDS011;17263;48.160;11.452;2022-11-15T01:28:33;5.57;;;4.93;;
30472;SDS011;17263;48.160;11.452;2022-11-15T01:31:04;8.97;;;6.43;;
30472;SDS011;17263;48.160;11.452;2022-11-15T01:33:34;7.53;;;5.90;;
30472;SDS011;17263;48.160;11.452;2022-11-15T01:36:05;5.67;;;5.17;;
30472;SDS011;17263;48.160;11.452;2022-11-15T01:38:33;7.07;;;5.83;;
30472;SDS011;17263;48.160;11.452;2022-11-15T01:40:59;7.37;;;5.83;;
30472;SDS011;17263;48.160;11.452;2022-11-15T01:43:27;6.90;;;5.20;;
30472;SDS011;17263;48.160;11.452;2022-11-15T01:48:54;6.80;;;5.57;;
30472;SDS011;17263;48.160;11.452;2022-11-15T01:51:24;7.10;;;5.80;;
30472;SDS011;17263;48.160;11.452;2022-11-15T01:53:54;6.50;;;4.83;;
30472;SDS011;17263;48.160;11.452;2022-11-15T01:56:23;5.97;;;5.33;;
30472;SDS011;17263;48.160;11.452;2022-11-15T01:58:53;6.70;;;5.53;;
30472;SDS011;17263;48.160;11.452;2022-11-15T02:01:22;5.80;;;5.27;;
30472;SDS011;17263;48.160;11.452;2022-11-15T02:03:56;6.23;;;4.93;;
30472;SDS011;17263;48.160;11.452;2022-11-15T02:06:32;5.50;;;4.90;;
30472;SDS011;17263;48.160;11.452;2022-11-15T02:09:00;5.77;;;5.10;;
30472;SDS011;17263;48.160;11.452;2022-11-15T02:11:26;5.70;;;4.93;;
30472;SDS011;17263;48.160;11.452;2022-11-15T02:13:53;8.00;;;5.50;;
30472;SDS011;17263;48.160;11.452;2022-11-15T02:16:39;6.33;;;4.80;;
30472;SDS011;17263;48.160;11.452;2022-11-15T02:19:28;7.63;;;5.23;;
30472;SDS011;17263;48.160;11.452;2022-11-15T02:22:12;5.53;;;4.90;;
30472;SDS011;17263;48.160;11.452;2022-11-15T02:38:59;7.37;;;5.50;;
30472;SDS011;17263;48.160;11.452;2022-11-15T02:44:12;5.67;;;5.17;;
30472;SDS011;17263;48.160;11.452;2022-11-15T02:46:40;5.70;;;4.93;;
30472;SDS011;17263;48.160;11.452;2022-11-15T02:49:31;6.73;;;5.33;;
30472;SDS011;17263;48.160;11.452;2022-11-15T02:51:58;6.63;;;4.70;;
30472;SDS011;17263;48.160;11.452;2022-11-15T02:54:25;5.80;;;5.03;;
30472;SDS011;17263;48.160;11.452;2022-11-15T02:56:56;7.17;;;5.23;;
30472;SDS011;17263;48.160;11.452;2022-11-15T03:02:49;5.37;;;4.60;;
30472;SDS011;17263;48.160;11.452;2022-11-15T03:05:44;5.77;;;4.77;;
30472;SDS011;17263;48.160;11.452;2022-11-15T03:11:10;7.13;;;5.53;;
30472;SDS011;17263;48.160;11.452;2022-11-15T03:13:47;7.53;;;5.77;;
30472;SDS011;17263;48.160;11.452;2022-11-15T03:16:41;7.00;;;5.30;;
30472;SDS011;17263;48.160;11.452;2022-11-15T03:19:14;6.20;;;4.90;;
30472;SDS011;17263;48.160;11.452;2022-11-15T03:21:46;6.90;;;4.93;;
30472;SDS011;17263;48.160;11.452;2022-11-15T03:24:14;6.07;;;4.77;;
30472;SDS011;17263;48.160;11.452;2022-11-15T03:26:43;6.67;;;4.87;;
30472;SDS011;17263;48.160;11.452;2022-11-15T03:29:15;6.80;;;5.23;;
30472;SDS011;17263;48.160;11.452;2022-11-15T03:31:46;6.27;;;5.10;;
30472;SDS011;17263;48.160;11.452;2022-11-15T03:36:53;5.67;;;4.50;;
30472;SDS011;17263;48.160;11.452;2022-11-15T03:39:20;6.70;;;4.97;;
30472;SDS011;17263;48.160;11.452;2022-11-15T03:41:52;5.80;;;4.50;;
30472;SDS011;17263;48.160;11.452;2022-11-15T03:52:54;5.90;;;4.77;;
30472;SDS011;17263;48.160;11.452;2022-11-15T03:55:20;5.60;;;4.70;;
30472;SDS011;17263;48.160;11.452;2022-11-15T03:57:49;6.57;;;4.70;;
30472;SDS011;17263;48.160;11.452;2022-11-15T04:00:22;5.57;;;4.70;;
30472;SDS011;17263;48.160;11.452;2022-11-15T04:02:48;6.10;;;4.90;;
30472;SDS011;17263;48.160;11.452;2022-11-15T04:05:14;5.87;;;4.63;;
30472;SDS011;17263;48.160;11.452;2022-11-15T04:07:40;6.00;;;4.90;;
30472;SDS011;17263;48.160;11.452;2022-11-15T04:10:06;5.97;;;4.77;;
30472;SDS011;17263;48.160;11.452;2022-11-15T04:12:35;5.00;;;4.50;;
30472;SDS011;17263;48.160;11.452;2022-11-15T04:15:13;5.20;;;4.50;;
30472;SDS011;17263;48.160;11.452;2022-11-15T04:17:42;5.53;;;4.93;;
30472;SDS011;17263;48.160;11.452;2022-11-15T04:20:12;5.30;;;4.50;;
30472;SDS011;17263;48.160;11.452;2022-11-15T04:23:10;5.43;;;4.47;;
30472;SDS011;17263;48.160;11.452;2022-11-15T04:25:56;6.03;;;4.77;;
30472;SDS011;17263;48.160;11.452;2022-11-15T04:28:25;5.83;;;5.17;;
30472;SDS011;17263;48.160;11.452;2022-11-15T04:30:51;5.90;;;4.43;;
30472;SDS011;17263;48.160;11.452;2022-11-15T04:33:18;6.43;;;4.30;;
30472;SDS011;17263;48.160;11.452;2022-11-15T04:35:44;9.33;;;4.67;;
30472;SDS011;17263;48.160;11.452;2022-11-15T04:38:30;5.70;;;4.07;;
30472;SDS011;17263;48.160;11.452;2022-11-15T04:40:56;5.80;;;4.97;;
30472;SDS011;17263;48.160;11.452;2022-11-15T04:43:22;4.47;;;4.00;;
30472;SDS011;17263;48.160;11.452;2022-11-15T04:45:48;6.97;;;5.10;;
30472;SDS011;17263;48.160;11.452;2022-11-15T04:48:14;5.80;;;4.63;;
30472;SDS011;17263;48.160;11.452;2022-11-15T04:50:40;6.33;;;5.00;;
30472;SDS011;17263;48.160;11.452;2022-11-15T04:53:06;7.63;;;4.67;;
30472;SDS011;17263;48.160;11.452;2022-11-15T04:55:32;6.20;;;4.97;;
30472;SDS011;17263;48.160;11.452;2022-11-15T04:58:02;6.47;;;5.13;;
30472;SDS011;17263;48.160;11.452;2022-11-15T05:00:28;7.73;;;5.43;;
30472;SDS011;17263;48.160;11.452;2022-11-15T05:02:55;5.20;;;4.70;;
30472;SDS011;17263;48.160;11.452;2022-11-15T05:05:40;7.57;;;4.70;;
30472;SDS011;17263;48.160;11.452;2022-11-15T05:08:07;5.90;;;4.70;;
30472;SDS011;17263;48.160;11.452;2022-11-15T05:10:33;5.30;;;4.57;;
30472;SDS011;17263;48.160;11.452;2022-11-15T05:12:59;6.13;;;5.13;;
30472;SDS011;17263;48.160;11.452;2022-11-15T05:15:25;5.83;;;4.73;;
30472;SDS011;17263;48.160;11.452;2022-11-15T05:17:56;5.03;;;4.43;;
30472;SDS011;17263;48.160;11.452;2022-11-15T05:20:23;5.57;;;4.70;;
30472;SDS011;17263;48.160;11.452;2022-11-15T05:22:49;5.37;;;4.57;;
30472;SDS011;17263;48.160;11.452;2022-11-15T05:25:15;6.80;;;4.97;;
30472;SDS011;17263;48.160;11.452;2022-11-15T05:27:41;5.27;;;4.33;;
30472;SDS011;17263;48.160;11.452;2022-11-15T05:30:07;5.70;;;5.00;;
30472;SDS011;17263;48.160;11.452;2022-11-15T05:32:33;6.40;;;4.80;;
30472;SDS011;17263;48.160;11.452;2022-11-15T05:34:59;6.27;;;5.07;;
30472;SDS011;17263;48.160;11.452;2022-11-15T05:37:25;5.83;;;5.03;;
30472;SDS011;17263;48.160;11.452;2022-11-15T05:39:51;5.50;;;5.00;;
30472;SDS011;17263;48.160;11.452;2022-11-15T05:42:17;5.63;;;4.50;;
30472;SDS011;17263;48.160;11.452;2022-11-15T05:44:46;6.63;;;5.23;;
30472;SDS011;17263;48.160;11.452;2022-11-15T05:47:21;7.30;;;5.23;;
30472;SDS011;17263;48.160;11.452;2022-11-15T05:49:50;5.70;;;4.27;;
30472;SDS011;17263;48.160;11.452;2022-11-15T05:52:17;5.97;;;4.70;;
30472;SDS011;17263;48.160;11.452;2022-11-15T05:54:48;5.10;;;4.60;;
30472;SDS011;17263;48.160;11.452;2022-11-15T05:57:15;5.50;;;4.37;;
30472;SDS011;17263;48.160;11.452;2022-11-15T05:59:41;6.57;;;4.73;;
30472;SDS011;17263;48.160;11.452;2022-11-15T06:02:09;6.40;;;4.80;;
30472;SDS011;17263;48.160;11.452;2022-11-15T06:04:36;7.90;;;5.33;;
30472;SDS011;17263;48.160;11.452;2022-11-15T06:07:02;7.13;;;5.57;;
30472;SDS011;17263;48.160;11.452;2022-11-15T06:09:28;7.07;;;5.10;;
30472;SDS011;17263;48.160;11.452;2022-11-15T06:11:54;6.87;;;5.43;;
30472;SDS011;17263;48.160;11.452;2022-11-15T06:14:20;6.13;;;4.80;;
30472;SDS011;17263;48.160;11.452;2022-11-15T06:16:46;6.13;;;4.73;;
30472;SDS011;17263;48.160;11.452;2022-11-15T06:19:12;8.67;;;5.27;;
30472;SDS011;17263;48.160;11.452;2022-11-15T06:21:38;8.93;;;4.90;;
30472;SDS011;17263;48.160;11.452;2022-11-15T06:24:04;5.30;;;4.37;;
30472;SDS011;17263;48.160;11.452;2022-11-15T06:26:31;5.97;;;4.60;;
30472;SDS011;17263;48.160;11.452;2022-11-15T06:28:57;6.17;;;4.30;;
30472;SDS011;17263;48.160;11.452;2022-11-15T06:31:23;7.70;;;5.30;;
30472;SDS011;17263;48.160;11.452;2022-11-15T06:33:49;5.13;;;4.20;;
30472;SDS011;17263;48.160;11.452;2022-11-15T06:36:15;7.33;;;4.87;;
30472;SDS011;17263;48.160;11.452;2022-11-15T06:38:42;7.00;;;4.80;;
30472;SDS011;17263;48.160;11.452;2022-11-15T06:41:10;5.77;;;5.17;;
30472;SDS011;17263;48.160;11.452;2022-11-15T06:43:36;6.10;;;5.20;;
30472;SDS011;17263;48.160;11.452;2022-11-15T06:46:04;7.20;;;5.60;;
30472;SDS011;17263;48.160;11.452;2022-11-15T06:48:31;7.43;;;5.80;;
30472;SDS011;17263;48.160;11.452;2022-11-15T06:50:59;8.40;;;5.83;;
30472;SDS011;17263;48.160;11.452;2022-11-15T06:53:26;9.00;;;6.17;;
30472;SDS011;17263;48.160;11.452;2022-11-15T06:55:53;8.33;;;6.23;;
30472;SDS011;17263;48.160;11.452;2022-11-15T06:58:23;8.70;;;6.17;;
30472;SDS011;17263;48.160;11.452;2022-11-15T07:00:49;10.10;;;6.70;;
30472;SDS011;17263;48.160;11.452;2022-11-15T07:03:15;11.23;;;6.63;;
30472;SDS011;17263;48.160;11.452;2022-11-15T07:05:41;9.90;;;6.23;;
30472;SDS011;17263;48.160;11.452;2022-11-15T07:08:07;12.10;;;7.27;;
30472;SDS011;17263;48.160;11.452;2022-11-15T07:10:34;10.30;;;6.97;;
30472;SDS011;17263;48.160;11.452;2022-11-15T07:13:00;9.30;;;6.83;;
30472;SDS011;17263;48.160;11.452;2022-11-15T07:15:26;10.43;;;6.80;;
30472;SDS011;17263;48.160;11.452;2022-11-15T07:17:52;8.57;;;6.10;;
30472;SDS011;17263;48.160;11.452;2022-11-15T07:20:18;15.00;;;6.63;;
30472;SDS011;17263;48.160;11.452;2022-11-15T07:22:44;14.77;;;6.20;;
30472;SDS011;17263;48.160;11.452;2022-11-15T07:25:10;10.17;;;6.50;;
30472;SDS011;17263;48.160;11.452;2022-11-15T07:27:37;12.47;;;6.30;;
30472;SDS011;17263;48.160;11.452;2022-11-15T07:30:03;10.40;;;6.10;;
30472;SDS011;17263;48.160;11.452;2022-11-15T07:32:30;5.67;;;4.80;;
30472;SDS011;17263;48.160;11.452;2022-11-15T07:34:56;8.63;;;4.97;;
30472;SDS011;17263;48.160;11.452;2022-11-15T07:37:22;8.27;;;5.57;;
30472;SDS011;17263;48.160;11.452;2022-11-15T07:39:49;7.10;;;5.53;;
30472;SDS011;17263;48.160;11.452;2022-11-15T07:42:15;8.60;;;5.80;;
30472;SDS011;17263;48.160;11.452;2022-11-15T07:45:00;7.00;;;5.27;;
30472;SDS011;17263;48.160;11.452;2022-11-15T07:47:45;7.07;;;5.73;;
30472;SDS011;17263;48.160;11.452;2022-11-15T07:50:11;8.43;;;6.40;;
30472;SDS011;17263;48.160;11.452;2022-11-15T07:52:37;8.27;;;6.10;;
30472;SDS011;17263;48.160;11.452;2022-11-15T07:55:04;9.03;;;6.10;;
30472;SDS011;17263;48.160;11.452;2022-11-15T07:57:30;9.07;;;5.57;;
30472;SDS011;17263;48.160;11.452;2022-11-15T07:59:56;5.97;;;5.13;;
30472;SDS011;17263;48.160;11.452;2022-11-15T08:02:22;8.03;;;6.20;;
30472;SDS011;17263;48.160;11.452;2022-11-15T08:04:48;10.83;;;5.80;;
30472;SDS011;17263;48.160;11.452;2022-11-15T08:07:14;8.73;;;6.53;;
30472;SDS011;17263;48.160;11.452;2022-11-15T08:09:40;8.70;;;6.60;;
30472;SDS011;17263;48.160;11.452;2022-11-15T08:12:07;6.47;;;5.53;;
30472;SDS011;17263;48.160;11.452;2022-11-15T08:14:34;5.33;;;4.53;;
30472;SDS011;17263;48.160;11.452;2022-11-15T08:17:00;8.03;;;4.70;;
30472;SDS011;17263;48.160;11.452;2022-11-15T08:19:27;6.50;;;4.53;;
30472;SDS011;17263;48.160;11.452;2022-11-15T08:21:53;5.87;;;4.20;;
30472;SDS011;17263;48.160;11.452;2022-11-15T08:24:19;5.13;;;4.10;;
30472;SDS011;17263;48.160;11.452;2022-11-15T08:26:45;9.17;;;4.50;;
30472;SDS011;17263;48.160;11.452;2022-11-15T08:29:12;5.40;;;4.60;;
30472;SDS011;17263;48.160;11.452;2022-11-15T08:31:38;8.47;;;4.27;;
30472;SDS011;17263;48.160;11.452;2022-11-15T08:34:04;9.17;;;4.33;;
30472;SDS011;17263;48.160;11.452;2022-11-15T08:36:31;5.93;;;4.83;;
30472;SDS011;17263;48.160;11.452;2022-11-15T08:38:57;5.60;;;4.07;;
30472;SDS011;17263;48.160;11.452;2022-11-15T08:41:33;8.57;;;4.83;;
30472;SDS011;17263;48.160;11.452;2022-11-15T08:44:02;5.70;;;4.33;;
30472;SDS011;17263;48.160;11.452;2022-11-15T08:46:28;5.33;;;4.10;;
30472;SDS011;17263;48.160;11.452;2022-11-15T08:48:54;6.27;;;4.00;;
30472;SDS011;17263;48.160;11.452;2022-11-15T08:51:20;4.73;;;4.17;;
30472;SDS011;17263;48.160;11.452;2022-11-15T08:53:46;5.27;;;4.53;;
30472;SDS011;17263;48.160;11.452;2022-11-15T08:56:13;9.50;;;5.00;;
30472;SDS011;17263;48.160;11.452;2022-11-15T08:58:40;7.40;;;4.83;;
30472;SDS011;17263;48.160;11.452;2022-11-15T09:01:14;8.83;;;5.43;;
30472;SDS011;17263;48.160;11.452;2022-11-15T09:03:42;10.43;;;5.73;;
30472;SDS011;17263;48.160;11.452;2022-11-15T09:06:08;6.60;;;5.03;;
30472;SDS011;17263;48.160;11.452;2022-11-15T09:08:34;8.53;;;5.07;;
30472;SDS011;17263;48.160;11.452;2022-11-15T09:11:07;10.33;;;5.20;;
30472;SDS011;17263;48.160;11.452;2022-11-15T09:13:34;10.20;;;5.27;;
30472;SDS011;17263;48.160;11.452;2022-11-15T09:16:04;8.93;;;5.30;;
30472;SDS011;17263;48.160;11.452;2022-11-15T09:18:31;12.43;;;5.27;;
30472;SDS011;17263;48.160;11.452;2022-11-15T09:20:57;5.93;;;4.73;;
30472;SDS011;17263;48.160;11.452;2022-11-15T09:23:24;7.00;;;5.10;;
30472;SDS011;17263;48.160;11.452;2022-11-15T09:25:50;8.20;;;5.33;;
30472;SDS011;17263;48.160;11.452;2022-11-15T09:28:17;7.00;;;5.30;;
30472;SDS011;17263;48.160;11.452;2022-11-15T09:30:43;10.87;;;5.00;;
30472;SDS011;17263;48.160;11.452;2022-11-15T09:33:10;7.60;;;5.80;;
30472;SDS011;17263;48.160;11.452;2022-11-15T09:35:37;9.07;;;5.20;;
30472;SDS011;17263;48.160;11.452;2022-11-15T09:38:03;10.57;;;5.40;;
30472;SDS011;17263;48.160;11.452;2022-11-15T09:40:30;7.37;;;5.93;;
30472;SDS011;17263;48.160;11.452;2022-11-15T09:51:29;5.17;;;4.47;;
30472;SDS011;17263;48.160;11.452;2022-11-15T09:56:29;7.03;;;5.10;;
30472;SDS011;17263;48.160;11.452;2022-11-15T09:59:00;8.10;;;5.07;;
30472;SDS011;17263;48.160;11.452;2022-11-15T10:05:00;8.30;;;5.07;;
30472;SDS011;17263;48.160;11.452;2022-11-15T10:07:31;7.20;;;5.43;;
30472;SDS011;17263;48.160;11.452;2022-11-15T10:12:50;8.23;;;6.10;;
30472;SDS011;17263;48.160;11.452;2022-11-15T10:15:18;13.03;;;6.10;;
30472;SDS011;17263;48.160;11.452;2022-11-15T10:20:27;10.07;;;6.00;;
30472;SDS011;17263;48.160;11.452;2022-11-15T10:22:56;9.63;;;5.47;;
30472;SDS011;17263;48.160;11.452;2022-11-15T10:25:27;9.40;;;5.70;;
30472;SDS011;17263;48.160;11.452;2022-11-15T10:27:59;7.70;;;5.10;;
30472;SDS011;17263;48.160;11.452;2022-11-15T10:30:39;9.43;;;5.27;;
30472;SDS011;17263;48.160;11.452;2022-11-15T10:38:52;6.33;;;5.20;;
30472;SDS011;17263;48.160;11.452;2022-11-15T10:46:43;7.97;;;4.67;;
30472;SDS011;17263;48.160;11.452;2022-11-15T10:49:29;7.60;;;4.87;;
30472;SDS011;17263;48.160;11.452;2022-11-15T10:52:18;4.23;;;3.83;;
30472;SDS011;17263;48.160;11.452;2022-11-15T10:54:46;5.83;;;3.77;;
30472;SDS011;17263;48.160;11.452;2022-11-15T10:57:23;5.77;;;3.07;;
30472;SDS011;17263;48.160;11.452;2022-11-15T10:59:54;4.10;;;2.30;;
30472;SDS011;17263;48.160;11.452;2022-11-15T11:05:03;3.40;;;2.53;;
30472;SDS011;17263;48.160;11.452;2022-11-15T11:07:32;3.37;;;2.67;;
30472;SDS011;17263;48.160;11.452;2022-11-15T11:10:19;2.80;;;2.33;;
30472;SDS011;17263;48.160;11.452;2022-11-15T11:12:47;4.10;;;2.53;;
30472;SDS011;17263;48.160;11.452;2022-11-15T11:15:13;6.13;;;2.30;;
30472;SDS011;17263;48.160;11.452;2022-11-15T11:20:58;2.87;;;2.40;;
30472;SDS011;17263;48.160;11.452;2022-11-15T11:23:41;4.33;;;2.10;;
30472;SDS011;17263;48.160;11.452;2022-11-15T11:37:07;3.23;;;2.23;;
30472;SDS011;17263;48.160;11.452;2022-11-15T11:42:51;2.87;;;1.80;;
30472;SDS011;17263;48.160;11.452;2022-11-15T11:48:11;2.70;;;2.00;;
30472;SDS011;17263;48.160;11.452;2022-11-15T11:50:39;2.27;;;2.00;;
30472;SDS011;17263;48.160;11.452;2022-11-15T11:53:12;3.10;;;1.87;;
30472;SDS011;17263;48.160;11.452;2022-11-15T11:55:43;2.33;;;2.00;;
30472;SDS011;17263;48.160;11.452;2022-11-15T11:58:29;3.53;;;2.00;;
30472;SDS011;17263;48.160;11.452;2022-11-15T12:03:44;3.63;;;1.80;;
30472;SDS011;17263;48.160;11.452;2022-11-15T12:09:15;2.20;;;2.00;;
30472;SDS011;17263;48.160;11.452;2022-11-15T12:14:46;5.30;;;2.00;;
30472;SDS011;17263;48.160;11.452;2022-11-15T12:17:35;2.63;;;1.83;;
30472;SDS011;17263;48.160;11.452;2022-11-15T12:20:20;3.20;;;1.70;;
30472;SDS011;17263;48.160;11.452;2022-11-15T12:23:05;3.73;;;1.87;;
30472;SDS011;17263;48.160;11.452;2022-11-15T12:25:49;2.90;;;1.90;;
30472;SDS011;17263;48.160;11.452;2022-11-15T12:28:40;5.57;;;2.50;;
30472;SDS011;17263;48.160;11.452;2022-11-15T12:31:19;2.20;;;2.00;;
30472;SDS011;17263;48.160;11.452;2022-11-15T12:33:51;2.57;;;2.10;;
30472;SDS011;17263;48.160;11.452;2022-11-15T12:41:29;2.73;;;2.50;;
30472;SDS011;17263;48.160;11.452;2022-11-15T12:43:56;2.93;;;2.40;;
30472;SDS011;17263;48.160;11.452;2022-11-15T12:49:00;3.20;;;2.20;;
30472;SDS011;17263;48.160;11.452;2022-11-15T13:02:26;2.60;;;1.80;;
30472;SDS011;17263;48.160;11.452;2022-11-15T13:17:50;2.17;;;1.97;;
30472;SDS011;17263;48.160;11.452;2022-11-15T13:30:40;3.63;;;1.90;;
30472;SDS011;17263;48.160;11.452;2022-11-15T13:33:24;2.30;;;2.00;;
30472;SDS011;17263;48.160;11.452;2022-11-15T13:36:03;3.37;;;1.70;;
30472;SDS011;17263;48.160;11.452;2022-11-15T13:38:34;1.87;;;1.60;;
30472;SDS011;17263;48.160;11.452;2022-11-15T13:41:16;2.03;;;1.83;;
30472;SDS011;17263;48.160;11.452;2022-11-15T13:43:45;2.10;;;1.90;;
30472;SDS011;17263;48.160;11.452;2022-11-15T13:46:13;6.00;;;2.20;;
30472;SDS011;17263;48.160;11.452;2022-11-15T13:49:00;2.20;;;2.00;;
30472;SDS011;17263;48.160;11.452;2022-11-15T13:54:08;2.97;;;2.23;;
30472;SDS011;17263;48.160;11.452;2022-11-15T13:56:49;2.07;;;1.90;;
30472;SDS011;17263;48.160;11.452;2022-11-15T13:59:28;3.67;;;2.00;;
30472;SDS011;17263;48.160;11.452;2022-11-15T14:02:03;2.70;;;2.27;;
30472;SDS011;17263;48.160;11.452;2022-11-15T14:04:39;3.10;;;2.50;;
30472;SDS011;17263;48.160;11.452;2022-11-15T14:07:17;3.93;;;2.60;;
30472;SDS011;17263;48.160;11.452;2022-11-15T14:09:53;3.23;;;2.67;;
30472;SDS011;17263;48.160;11.452;2022-11-15T14:14:52;4.53;;;3.07;;
30472;SDS011;17263;48.160;11.452;2022-11-15T14:17:20;8.00;;;3.00;;
30472;SDS011;17263;48.160;11.452;2022-11-15T14:19:59;3.20;;;2.70;;
30472;SDS011;17263;48.160;11.452;2022-11-15T14:22:29;4.13;;;2.97;;
30472;SDS011;17263;48.160;11.452;2022-11-15T14:25:16;5.50;;;3.10;;
30472;SDS011;17263;48.160;11.452;2022-11-15T14:28:07;4.50;;;2.70;;
30472;SDS011;17263;48.160;11.452;2022-11-15T14:30:35;6.00;;;2.90;;
30472;SDS011;17263;48.160;11.452;2022-11-15T14:33:01;6.97;;;3.10;;
30472;SDS011;17263;48.160;11.452;2022-11-15T14:35:28;7.37;;;3.23;;
30472;SDS011;17263;48.160;11.452;2022-11-15T14:37:54;5.40;;;3.60;;
30472;SDS011;17263;48.160;11.452;2022-11-15T14:40:20;5.67;;;3.80;;
30472;SDS011;17263;48.160;11.452;2022-11-15T14:42:48;5.60;;;3.83;;
30472;SDS011;17263;48.160;11.452;2022-11-15T14:47:43;6.57;;;4.57;;
30472;SDS011;17263;48.160;11.452;2022-11-15T14:50:12;8.47;;;4.60;;
30472;SDS011;17263;48.160;11.452;2022-11-15T14:52:40;8.10;;;4.50;;
30472;SDS011;17263;48.160;11.452;2022-11-15T14:55:48;7.17;;;4.80;;
30472;SDS011;17263;48.160;11.452;2022-11-15T14:57:58;6.60;;;4.80;;
30472;SDS011;17263;48.160;11.452;2022-11-15T15:00:24;7.30;;;4.97;;
30472;SDS011;17263;48.160;11.452;2022-11-15T15:02:52;7.37;;;4.83;;
30472;SDS011;17263;48.160;11.452;2022-11-15T15:05:20;9.17;;;6.63;;
30472;SDS011;17263;48.160;11.452;2022-11-15T15:07:49;7.37;;;5.93;;
30472;SDS011;17263;48.160;11.452;2022-11-15T15:10:15;6.90;;;5.70;;
30472;SDS011;17263;48.160;11.452;2022-11-15T15:12:42;10.70;;;6.03;;
30472;SDS011;17263;48.160;11.452;2022-11-15T15:15:16;8.20;;;5.33;;
30472;SDS011;17263;48.160;11.452;2022-11-15T15:17:45;6.20;;;5.30;;
30472;SDS011;17263;48.160;11.452;2022-11-15T15:20:11;6.70;;;5.97;;
30472;SDS011;17263;48.160;11.452;2022-11-15T15:22:37;6.17;;;5.47;;
30472;SDS011;17263;48.160;11.452;2022-11-15T15:25:12;7.67;;;6.17;;
30472;SDS011;17263;48.160;11.452;2022-11-15T15:27:48;6.27;;;5.63;;
30472;SDS011;17263;48.160;11.452;2022-11-15T15:30:14;7.07;;;6.00;;
30472;SDS011;17263;48.160;11.452;2022-11-15T15:32:40;9.53;;;6.00;;
30472;SDS011;17263;48.160;11.452;2022-11-15T15:35:07;8.83;;;5.83;;
30472;SDS011;17263;48.160;11.452;2022-11-15T15:37:36;7.33;;;5.77;;
30472;SDS011;17263;48.160;11.452;2022-11-15T15:40:02;7.33;;;6.30;;
30472;SDS011;17263;48.160;11.452;2022-11-15T15:42:28;7.20;;;5.50;;
30472;SDS011;17263;48.160;11.452;2022-11-15T15:44:54;8.13;;;6.17;;
30472;SDS011;17263;48.160;11.452;2022-11-15T15:47:21;6.83;;;6.17;;
30472;SDS011;17263;48.160;11.452;2022-11-15T15:49:48;8.00;;;6.17;;
30472;SDS011;17263;48.160;11.452;2022-11-15T15:52:15;7.23;;;6.33;;
30472;SDS011;17263;48.160;11.452;2022-11-15T15:54:42;7.53;;;6.13;;
30472;SDS011;17263;48.160;11.452;2022-11-15T15:57:08;6.43;;;5.83;;
30472;SDS011;17263;48.160;11.452;2022-11-15T15:59:38;8.87;;;6.67;;
30472;SDS011;17263;48.160;11.452;2022-11-15T16:02:04;8.30;;;6.03;;
30472;SDS011;17263;48.160;11.452;2022-11-15T16:04:30;6.57;;;5.87;;
30472;SDS011;17263;48.160;11.452;2022-11-15T16:06:59;8.80;;;6.10;;
30472;SDS011;17263;48.160;11.452;2022-11-15T16:09:26;7.17;;;6.00;;
30472;SDS011;17263;48.160;11.452;2022-11-15T16:12:11;6.73;;;5.67;;
30472;SDS011;17263;48.160;11.452;2022-11-15T16:14:37;6.37;;;5.30;;
30472;SDS011;17263;48.160;11.452;2022-11-15T16:17:04;7.33;;;6.20;;
30472;SDS011;17263;48.160;11.452;2022-11-15T16:19:30;12.80;;;6.60;;
30472;SDS011;17263;48.160;11.452;2022-11-15T16:21:56;7.33;;;6.27;;
30472;SDS011;17263;48.160;11.452;2022-11-15T16:24:22;7.87;;;6.17;;
30472;SDS011;17263;48.160;11.452;2022-11-15T16:26:48;9.10;;;6.57;;
30472;SDS011;17263;48.160;11.452;2022-11-15T16:29:15;9.10;;;6.87;;
30472;SDS011;17263;48.160;11.452;2022-11-15T16:31:42;10.97;;;7.47;;
30472;SDS011;17263;48.160;11.452;2022-11-15T16:34:08;10.87;;;8.90;;
30472;SDS011;17263;48.160;11.452;2022-11-15T16:36:34;11.23;;;8.97;;
30472;SDS011;17263;48.160;11.452;2022-11-15T16:39:01;11.87;;;9.80;;
30472;SDS011;17263;48.160;11.452;2022-11-15T16:41:31;10.33;;;9.13;;
30472;SDS011;17263;48.160;11.452;2022-11-15T16:43:57;10.53;;;8.57;;
30472;SDS011;17263;48.160;11.452;2022-11-15T16:46:24;10.37;;;8.13;;
30472;SDS011;17263;48.160;11.452;2022-11-15T16:48:51;13.93;;;9.60;;
30472;SDS011;17263;48.160;11.452;2022-11-15T16:51:18;13.97;;;10.07;;
30472;SDS011;17263;48.160;11.452;2022-11-15T16:53:45;14.03;;;9.57;;
30472;SDS011;17263;48.160;11.452;2022-11-15T16:56:23;13.20;;;9.57;;
30472;SDS011;17263;48.160;11.452;2022-11-15T16:58:51;14.57;;;9.27;;
30472;SDS011;17263;48.160;11.452;2022-11-15T17:01:22;15.23;;;10.67;;
30472;SDS011;17263;48.160;11.452;2022-11-15T17:03:50;12.67;;;9.53;;
30472;SDS011;17263;48.160;11.452;2022-11-15T17:06:16;9.93;;;8.83;;
30472;SDS011;17263;48.160;11.452;2022-11-15T17:08:43;15.40;;;10.33;;
30472;SDS011;17263;48.160;11.452;2022-11-15T17:11:12;11.47;;;9.37;;
30472;SDS011;17263;48.160;11.452;2022-11-15T17:13:41;11.53;;;9.20;;
30472;SDS011;17263;48.160;11.452;2022-11-15T17:16:08;12.20;;;9.70;;